createdAt,value
2018-03-06T00:00:37.373Z,21.40
2018-03-06T00:01:37.319Z,17.70
2018-03-06T00:02:37.303Z,17.30
2018-03-06T00:03:37.236Z,19.20
2018-03-06T00:04:37.232Z,18.90
2018-03-06T00:05:37.176Z,17.90
2018-03-06T00:06:37.140Z,18.00
2018-03-06T00:07:37.088Z,17.20
2018-03-06T00:08:37.068Z,16.90
2018-03-06T00:09:37.017Z,19.40
2018-03-06T00:10:36.951Z,17.90
2018-03-06T00:11:36.914Z,16.70
2018-03-06T00:12:36.882Z,16.00
2018-03-06T00:13:36.852Z,19.40
2018-03-06T00:14:36.804Z,16.50
2018-03-06T00:15:36.753Z,19.30
2018-03-06T00:16:36.711Z,20.40
2018-03-06T00:17:36.680Z,16.10
2018-03-06T00:18:36.651Z,18.00
2018-03-06T00:19:36.601Z,18.60
2018-03-06T00:20:36.574Z,19.30
2018-03-06T00:21:36.509Z,18.00
2018-03-06T00:22:36.472Z,19.70
2018-03-06T00:23:36.428Z,19.20
2018-03-06T00:24:36.411Z,17.50
2018-03-06T00:25:36.366Z,16.10
2018-03-06T00:26:36.316Z,17.10
2018-03-06T00:27:36.266Z,19.50
2018-03-06T00:28:36.263Z,19.20
2018-03-06T00:29:36.187Z,16.50
2018-03-06T00:30:36.166Z,16.00
2018-03-06T00:31:36.106Z,18.30
2018-03-06T00:32:36.058Z,17.60
2018-03-06T00:33:36.062Z,18.30
2018-03-06T00:34:35.992Z,17.40
2018-03-06T00:35:35.944Z,21.60
2018-03-06T00:36:35.926Z,20.30
2018-03-06T00:37:35.880Z,16.10
2018-03-06T00:38:35.843Z,20.20
2018-03-06T00:39:35.785Z,17.90
2018-03-06T00:40:35.783Z,20.40
2018-03-06T00:41:35.709Z,21.50
2018-03-06T00:42:35.689Z,17.60
2018-03-06T00:43:35.612Z,21.30
2018-03-06T00:44:35.572Z,22.00
2018-03-06T00:45:35.591Z,22.10
2018-03-06T00:46:35.502Z,21.60
2018-03-06T00:47:35.458Z,23.90
2018-03-06T00:48:35.458Z,20.20
2018-03-06T00:49:35.378Z,21.80
2018-03-06T00:50:35.361Z,19.90
2018-03-06T00:51:35.287Z,20.40
2018-03-06T00:52:35.266Z,21.40
2018-03-06T00:53:35.219Z,21.30
2018-03-06T00:54:35.173Z,19.00
2018-03-06T00:55:35.128Z,19.20
2018-03-06T00:56:35.086Z,21.40
2018-03-06T00:57:35.054Z,20.40
2018-03-06T00:58:35.057Z,18.20
2018-03-06T00:59:34.981Z,20.50
2018-03-06T01:00:34.920Z,21.80
2018-03-06T01:01:34.885Z,20.90
2018-03-06T01:02:34.845Z,20.80
2018-03-06T01:03:34.855Z,20.80
2018-03-06T01:04:34.756Z,24.80
2018-03-06T01:05:34.718Z,22.10
2018-03-06T01:06:34.698Z,23.60
2018-03-06T01:07:34.632Z,23.80
2018-03-06T01:08:34.593Z,22.20
2018-03-06T01:09:34.554Z,18.90
2018-03-06T01:10:34.509Z,20.30
2018-03-06T01:11:34.473Z,23.70
2018-03-06T01:12:34.444Z,23.20
2018-03-06T01:13:34.386Z,28.40
2018-03-06T01:14:34.349Z,23.40
2018-03-06T01:15:34.331Z,21.80
2018-03-06T01:16:34.456Z,21.90
2018-03-06T01:17:34.246Z,20.00
2018-03-06T01:18:34.184Z,20.10
2018-03-06T01:19:34.144Z,25.50
2018-03-06T01:20:34.110Z,20.40
2018-03-06T01:21:34.064Z,24.30
2018-03-06T01:22:34.022Z,23.10
2018-03-06T01:23:33.995Z,20.50
2018-03-06T01:24:33.963Z,20.80
2018-03-06T01:25:33.937Z,20.40
2018-03-06T01:26:33.860Z,22.00
2018-03-06T01:27:33.822Z,21.20
2018-03-06T01:28:33.777Z,26.10
2018-03-06T01:29:33.744Z,24.90
2018-03-06T01:30:33.716Z,22.70
2018-03-06T01:31:33.664Z,28.00
2018-03-06T01:32:33.636Z,23.00
2018-03-06T01:33:33.578Z,23.80
2018-03-06T01:34:33.534Z,23.30
2018-03-06T01:35:33.495Z,22.20
2018-03-06T01:36:33.456Z,23.40
2018-03-06T01:37:33.451Z,23.10
2018-03-06T01:38:33.369Z,23.50
2018-03-06T01:39:33.330Z,28.60
2018-03-06T01:40:33.305Z,24.10
2018-03-06T01:41:33.247Z,22.00
2018-03-06T01:42:33.205Z,28.30
2018-03-06T01:43:33.171Z,23.60
2018-03-06T01:44:33.161Z,27.20
2018-03-06T01:45:33.082Z,28.10
2018-03-06T01:46:33.052Z,27.50
2018-03-06T01:47:33.002Z,24.60
2018-03-06T01:48:32.992Z,25.80
2018-03-06T01:49:33.934Z,26.80
2018-03-06T01:50:34.400Z,26.10
2018-03-06T01:51:32.857Z,23.10
2018-03-06T01:52:32.795Z,24.20
2018-03-06T01:53:32.792Z,23.80
2018-03-06T01:54:32.727Z,27.00
2018-03-06T01:55:32.676Z,27.60
2018-03-06T01:56:32.670Z,23.80
2018-03-06T01:57:32.613Z,27.70
2018-03-06T01:58:32.550Z,25.10
2018-03-06T01:59:32.549Z,27.20
2018-03-06T02:00:32.515Z,26.10
2018-03-06T02:01:32.433Z,24.50
2018-03-06T02:02:32.393Z,24.70
2018-03-06T02:03:32.378Z,26.40
2018-03-06T02:04:32.363Z,24.10
2018-03-06T02:05:32.294Z,25.20
2018-03-06T02:06:32.228Z,25.40
2018-03-06T02:07:32.202Z,26.70
2018-03-06T02:08:32.154Z,24.60
2018-03-06T02:09:32.108Z,22.90
2018-03-06T02:10:32.098Z,25.70
2018-03-06T02:11:32.051Z,26.20
2018-03-06T02:12:32.012Z,26.10
2018-03-06T02:13:31.986Z,26.60
2018-03-06T02:14:31.913Z,23.00
2018-03-06T02:15:31.862Z,28.00
2018-03-06T02:16:31.821Z,31.00
2018-03-06T02:17:31.780Z,26.30
2018-03-06T02:18:31.741Z,23.20
2018-03-06T02:19:31.776Z,23.90
2018-03-06T02:20:31.657Z,23.50
2018-03-06T02:21:31.650Z,26.20
2018-03-06T02:22:31.576Z,22.60
2018-03-06T02:23:31.572Z,26.40
2018-03-06T02:24:31.498Z,24.20
2018-03-06T02:25:31.459Z,26.00
2018-03-06T02:26:31.415Z,26.30
2018-03-06T02:27:31.398Z,30.00
2018-03-06T02:28:31.357Z,21.40
2018-03-06T02:29:31.292Z,26.20
2018-03-06T02:30:31.252Z,28.00
2018-03-06T02:31:31.232Z,24.40
2018-03-06T02:32:31.243Z,23.20
2018-03-06T02:33:31.131Z,25.40
2018-03-06T02:34:31.087Z,29.80
2018-03-06T02:35:31.066Z,26.80
2018-03-06T02:36:31.008Z,22.70
2018-03-06T02:37:30.975Z,29.40
2018-03-06T02:38:30.964Z,32.50
2018-03-06T02:39:30.884Z,28.40
2018-03-06T02:40:30.844Z,28.40
2018-03-06T02:41:30.820Z,28.60
2018-03-06T02:42:30.761Z,26.50
2018-03-06T02:43:30.824Z,23.50
2018-03-06T02:44:30.689Z,26.90
2018-03-06T02:45:30.656Z,26.50
2018-03-06T02:46:30.603Z,29.50
2018-03-06T02:47:30.562Z,24.50
2018-03-06T02:48:30.519Z,30.10
2018-03-06T02:49:30.479Z,27.10
2018-03-06T02:50:30.439Z,29.30
2018-03-06T02:51:30.397Z,29.70
2018-03-06T02:52:30.408Z,27.60
2018-03-06T02:53:30.325Z,30.20
2018-03-06T02:54:30.275Z,29.70
2018-03-06T02:55:30.261Z,31.40
2018-03-06T02:56:30.234Z,30.50
2018-03-06T02:57:30.169Z,27.20
2018-03-06T02:58:30.155Z,31.50
2018-03-06T02:59:30.098Z,28.30
2018-03-06T03:00:30.041Z,32.60
2018-03-06T03:01:29.992Z,29.50
2018-03-06T03:02:29.964Z,30.70
2018-03-06T03:03:29.941Z,33.90
2018-03-06T03:04:29.870Z,33.30
2018-03-06T03:05:29.852Z,29.60
2018-03-06T03:06:29.797Z,31.20
2018-03-06T03:07:29.751Z,29.70
2018-03-06T03:08:29.707Z,31.20
2018-03-06T03:09:29.680Z,31.70
2018-03-06T03:10:29.629Z,31.50
2018-03-06T03:11:29.585Z,35.60
2018-03-06T03:12:29.568Z,32.60
2018-03-06T03:13:29.505Z,33.70
2018-03-06T03:14:29.469Z,32.50
2018-03-06T03:15:29.429Z,31.40
2018-03-06T03:16:29.388Z,32.70
2018-03-06T03:17:29.340Z,31.50
2018-03-06T03:18:29.333Z,32.20
2018-03-06T03:19:29.266Z,32.40
2018-03-06T03:20:29.230Z,36.80
2018-03-06T03:21:29.184Z,34.70
2018-03-06T03:22:29.154Z,40.90
2018-03-06T03:23:29.110Z,35.70
2018-03-06T03:24:29.061Z,37.30
2018-03-06T03:25:29.031Z,35.90
2018-03-06T03:26:28.999Z,31.20
2018-03-06T03:27:28.953Z,36.60
2018-03-06T03:28:28.899Z,36.50
2018-03-06T03:29:28.860Z,35.60
2018-03-06T03:30:28.818Z,34.20
2018-03-06T03:31:28.797Z,34.30
2018-03-06T03:32:28.738Z,34.40
2018-03-06T03:33:28.695Z,34.60
2018-03-06T03:34:28.687Z,31.80
2018-03-06T03:35:28.625Z,32.50
2018-03-06T03:36:28.594Z,37.10
2018-03-06T03:37:28.538Z,33.30
2018-03-06T03:38:28.498Z,33.10
2018-03-06T03:39:28.486Z,33.90
2018-03-06T03:40:28.470Z,33.50
2018-03-06T03:41:28.393Z,34.40
2018-03-06T03:42:28.337Z,31.00
2018-03-06T03:43:28.299Z,35.90
2018-03-06T03:44:28.259Z,34.90
2018-03-06T03:45:28.250Z,38.30
2018-03-06T03:46:28.201Z,35.10
2018-03-06T03:47:28.159Z,31.00
2018-03-06T03:48:28.113Z,40.30
2018-03-06T03:49:28.061Z,34.80
2018-03-06T03:50:28.021Z,35.60
2018-03-06T03:51:27.977Z,37.50
2018-03-06T03:52:27.936Z,39.10
2018-03-06T03:53:27.897Z,40.30
2018-03-06T03:54:27.853Z,39.50
2018-03-06T03:55:27.814Z,45.30
2018-03-06T03:56:27.779Z,37.30
2018-03-06T03:57:27.738Z,44.50
2018-03-06T03:58:27.708Z,46.90
2018-03-06T03:59:27.659Z,43.20
2018-03-06T04:00:27.647Z,43.20
2018-03-06T04:01:27.612Z,43.40
2018-03-06T04:02:27.543Z,44.60
2018-03-06T04:03:27.510Z,43.50
2018-03-06T04:04:27.452Z,45.70
2018-03-06T04:05:27.433Z,41.00
2018-03-06T04:06:27.370Z,43.10
2018-03-06T04:07:27.337Z,38.50
2018-03-06T04:08:27.290Z,40.10
2018-03-06T04:09:27.254Z,42.70
2018-03-06T04:10:27.223Z,41.50
2018-03-06T04:11:27.187Z,41.90
2018-03-06T04:12:27.136Z,45.90
2018-03-06T04:13:27.118Z,39.80
2018-03-06T04:14:27.049Z,43.70
2018-03-06T04:15:27.029Z,45.20
2018-03-06T04:16:26.984Z,38.30
2018-03-06T04:17:26.974Z,42.70
2018-03-06T04:18:26.892Z,47.00
2018-03-06T04:19:26.859Z,46.70
2018-03-06T04:20:26.856Z,48.20
2018-03-06T04:21:26.782Z,44.10
2018-03-06T04:22:26.727Z,42.80
2018-03-06T04:23:26.689Z,39.80
2018-03-06T04:24:26.650Z,42.80
2018-03-06T04:25:26.608Z,43.00
2018-03-06T04:26:26.565Z,46.60
2018-03-06T04:27:26.535Z,44.30
2018-03-06T04:28:26.525Z,44.60
2018-03-06T04:29:26.446Z,42.90
2018-03-06T04:30:26.411Z,45.10
2018-03-06T04:31:26.393Z,42.90
2018-03-06T04:32:26.338Z,45.30
2018-03-06T04:33:26.284Z,42.50
2018-03-06T04:34:26.247Z,45.10
2018-03-06T04:35:26.203Z,51.00
2018-03-06T04:36:26.166Z,43.70
2018-03-06T04:37:26.122Z,46.70
2018-03-06T04:38:26.089Z,44.90
2018-03-06T04:39:26.068Z,44.70
2018-03-06T04:40:26.017Z,44.90
2018-03-06T04:41:25.967Z,43.80
2018-03-06T04:42:25.929Z,41.80
2018-03-06T04:43:25.891Z,50.50
2018-03-06T04:44:25.847Z,43.80
2018-03-06T04:45:25.816Z,45.90
2018-03-06T04:46:25.780Z,43.40
2018-03-06T04:47:25.749Z,48.70
2018-03-06T04:48:25.708Z,40.90
2018-03-06T04:49:25.659Z,39.70
2018-03-06T04:50:25.677Z,40.40
2018-03-06T04:51:25.567Z,48.70
2018-03-06T04:52:25.540Z,43.30
2018-03-06T04:53:25.485Z,44.90
2018-03-06T04:54:25.447Z,43.60
2018-03-06T04:55:25.403Z,45.40
2018-03-06T04:56:25.367Z,45.90
2018-03-06T04:57:25.352Z,43.30
2018-03-06T04:58:25.316Z,44.70
2018-03-06T04:59:25.244Z,43.70
2018-03-06T05:00:25.223Z,56.50
2018-03-06T05:01:25.162Z,47.60
2018-03-06T05:02:25.143Z,45.90
2018-03-06T05:03:25.084Z,48.00
2018-03-06T05:04:25.054Z,48.80
2018-03-06T05:05:25.017Z,51.40
2018-03-06T05:06:24.963Z,50.00
2018-03-06T05:07:24.924Z,48.20
2018-03-06T05:08:24.882Z,49.50
2018-03-06T05:09:24.840Z,54.80
2018-03-06T05:10:24.800Z,47.30
2018-03-06T05:11:24.760Z,46.10
2018-03-06T05:12:24.723Z,49.20
2018-03-06T05:13:24.704Z,43.20
2018-03-06T05:14:24.640Z,49.00
2018-03-06T05:15:24.597Z,51.10
2018-03-06T05:16:24.558Z,48.10
2018-03-06T05:17:24.520Z,44.80
2018-03-06T05:18:24.477Z,45.60
2018-03-06T05:19:24.438Z,45.50
2018-03-06T05:20:24.397Z,48.80
2018-03-06T05:21:24.359Z,46.80
2018-03-06T05:22:24.315Z,46.20
2018-03-06T05:23:24.276Z,46.30
2018-03-06T05:24:24.235Z,50.00
2018-03-06T05:25:24.194Z,46.20
2018-03-06T05:26:24.157Z,45.20
2018-03-06T05:27:24.113Z,46.30
2018-03-06T05:28:24.073Z,48.40
2018-03-06T05:29:24.032Z,46.70
2018-03-06T05:30:23.995Z,47.60
2018-03-06T05:31:23.952Z,50.40
2018-03-06T05:32:23.911Z,44.80
2018-03-06T05:33:23.873Z,44.10
2018-03-06T05:34:23.849Z,48.10
2018-03-06T05:35:23.793Z,49.50
2018-03-06T05:36:24.388Z,42.90
2018-03-06T05:37:23.709Z,48.80
2018-03-06T05:38:23.671Z,47.10
2018-03-06T05:39:23.633Z,44.00
2018-03-06T05:40:23.588Z,46.90
2018-03-06T05:41:23.546Z,48.70
2018-03-06T05:42:23.507Z,45.80
2018-03-06T05:43:23.468Z,50.90
2018-03-06T05:44:23.427Z,45.30
2018-03-06T05:45:23.388Z,44.20
2018-03-06T05:46:23.349Z,50.10
2018-03-06T05:47:23.308Z,52.10
2018-03-06T05:48:23.266Z,44.60
2018-03-06T05:49:23.230Z,46.50
2018-03-06T05:50:23.187Z,58.10
2018-03-06T05:51:23.149Z,49.30
2018-03-06T05:52:23.103Z,44.20
2018-03-06T05:53:23.065Z,47.10
2018-03-06T05:54:23.104Z,44.90
2018-03-06T05:55:22.988Z,49.00
2018-03-06T05:56:22.951Z,50.10
2018-03-06T05:57:22.904Z,46.30
2018-03-06T05:58:22.862Z,48.90
2018-03-06T05:59:22.824Z,45.40
2018-03-06T06:00:22.785Z,48.90
2018-03-06T06:01:22.743Z,49.70
2018-03-06T06:02:22.702Z,47.60
2018-03-06T06:03:22.685Z,47.50
2018-03-06T06:04:22.623Z,53.10
2018-03-06T06:05:22.582Z,49.90
2018-03-06T06:06:22.562Z,50.20
2018-03-06T06:07:22.499Z,56.80
2018-03-06T06:08:22.470Z,47.70
2018-03-06T06:09:22.422Z,47.80
2018-03-06T06:10:22.388Z,45.20
2018-03-06T06:11:22.340Z,52.00
2018-03-06T06:12:22.300Z,51.10
2018-03-06T06:13:22.258Z,44.20
2018-03-06T06:14:22.220Z,47.80
2018-03-06T06:15:22.178Z,53.50
2018-03-06T06:16:22.138Z,50.70
2018-03-06T06:17:22.097Z,54.00
2018-03-06T06:18:22.062Z,46.70
2018-03-06T06:19:22.017Z,51.80
2018-03-06T06:20:21.977Z,51.00
2018-03-06T06:21:21.977Z,51.80
2018-03-06T06:22:21.912Z,52.70
2018-03-06T06:23:21.856Z,53.30
2018-03-06T06:24:21.815Z,47.50
2018-03-06T06:25:21.777Z,51.40
2018-03-06T06:26:21.736Z,53.30
2018-03-06T06:27:21.692Z,52.90
2018-03-06T06:28:21.653Z,64.70
2018-03-06T06:29:21.612Z,53.00
2018-03-06T06:30:21.572Z,53.20
2018-03-06T06:31:21.535Z,54.80
2018-03-06T06:32:21.491Z,54.10
2018-03-06T06:33:21.450Z,56.30
2018-03-06T06:34:21.410Z,53.60
2018-03-06T06:35:21.388Z,55.50
2018-03-06T06:36:21.329Z,56.30
2018-03-06T06:37:21.288Z,55.30
2018-03-06T06:38:21.255Z,60.00
2018-03-06T06:39:21.208Z,55.90
2018-03-06T06:40:21.169Z,59.20
2018-03-06T06:41:21.127Z,56.30
2018-03-06T06:42:21.087Z,55.90
2018-03-06T06:43:21.048Z,57.30
2018-03-06T06:44:21.005Z,56.50
2018-03-06T06:45:20.967Z,57.50
2018-03-06T06:46:20.927Z,59.20
2018-03-06T06:47:20.883Z,51.80
2018-03-06T06:48:20.843Z,54.30
2018-03-06T06:49:20.805Z,58.30
2018-03-06T06:50:20.762Z,57.10
2018-03-06T06:51:20.737Z,57.60
2018-03-06T06:52:20.682Z,56.20
2018-03-06T06:53:20.646Z,59.90
2018-03-06T06:54:20.599Z,58.20
2018-03-06T06:55:20.560Z,56.60
2018-03-06T06:56:20.520Z,58.40
2018-03-06T06:57:20.478Z,58.70
2018-03-06T06:58:20.439Z,59.70
2018-03-06T06:59:20.399Z,57.10
2018-03-06T07:00:20.357Z,58.40
2018-03-06T07:01:20.320Z,59.60
2018-03-06T07:02:20.277Z,57.30
2018-03-06T07:03:20.239Z,61.70
2018-03-06T07:04:20.242Z,60.80
2018-03-06T07:05:20.159Z,57.80
2018-03-06T07:06:20.118Z,59.70
2018-03-06T07:07:20.077Z,57.50
2018-03-06T07:08:20.034Z,60.60
2018-03-06T07:09:19.995Z,69.00
2018-03-06T07:10:20.026Z,68.40
2018-03-06T07:11:19.914Z,73.90
2018-03-06T07:12:19.875Z,61.40
2018-03-06T07:13:19.834Z,60.80
2018-03-06T07:14:19.795Z,61.20
2018-03-06T07:15:19.756Z,57.90
2018-03-06T07:16:19.718Z,54.70
2018-03-06T07:17:19.675Z,61.20
2018-03-06T07:18:19.636Z,57.60
2018-03-06T07:19:20.444Z,56.30
2018-03-06T07:20:19.554Z,55.40
2018-03-06T07:21:19.516Z,53.90
2018-03-06T07:22:19.476Z,55.80
2018-03-06T07:23:19.440Z,54.00
2018-03-06T07:24:19.395Z,55.40
2018-03-06T07:25:19.356Z,52.50
2018-03-06T07:26:19.317Z,54.50
2018-03-06T07:27:19.280Z,53.70
2018-03-06T07:28:19.236Z,54.90
2018-03-06T07:29:19.200Z,59.10
2018-03-06T07:30:19.159Z,51.20
2018-03-06T07:31:19.117Z,62.50
2018-03-06T07:32:19.078Z,58.20
2018-03-06T07:33:19.040Z,57.30
2018-03-06T07:34:19.006Z,55.70
2018-03-06T07:35:18.962Z,57.00
2018-03-06T07:36:18.952Z,54.10
2018-03-06T07:37:18.882Z,58.70
2018-03-06T07:38:18.844Z,58.90
2018-03-06T07:39:18.805Z,54.20
2018-03-06T07:40:18.764Z,57.30
2018-03-06T07:41:18.724Z,54.90
2018-03-06T07:42:18.685Z,56.30
2018-03-06T07:43:18.646Z,60.10
2018-03-06T07:44:18.607Z,54.80
2018-03-06T07:45:18.601Z,57.00
2018-03-06T07:46:18.530Z,58.30
2018-03-06T07:47:18.488Z,51.80
2018-03-06T07:48:18.450Z,56.00
2018-03-06T07:49:18.416Z,51.10
2018-03-06T07:50:18.375Z,54.50
2018-03-06T07:51:18.334Z,57.30
2018-03-06T07:52:18.294Z,54.70
2018-03-06T07:53:18.255Z,53.30
2018-03-06T07:54:18.219Z,52.60
2018-03-06T07:55:18.181Z,57.70
2018-03-06T07:56:18.141Z,51.60
2018-03-06T07:57:18.108Z,56.00
2018-03-06T07:58:18.066Z,57.00
2018-03-06T07:59:18.049Z,57.30
2018-03-06T08:00:17.991Z,55.10
2018-03-06T08:01:17.953Z,53.60
2018-03-06T08:02:17.926Z,56.40
2018-03-06T08:03:17.881Z,52.00
2018-03-06T08:04:17.846Z,61.80
2018-03-06T08:05:17.833Z,57.80
2018-03-06T08:06:17.770Z,55.30
2018-03-06T08:07:17.735Z,55.90
2018-03-06T08:08:17.698Z,56.80
2018-03-06T08:09:17.658Z,52.80
2018-03-06T08:10:17.626Z,50.90
2018-03-06T08:11:17.604Z,62.90
2018-03-06T08:12:17.550Z,53.00
2018-03-06T08:13:17.515Z,55.00
2018-03-06T08:14:17.479Z,54.30
2018-03-06T08:15:17.441Z,55.50
2018-03-06T08:16:17.410Z,55.10
2018-03-06T08:17:17.367Z,55.40
2018-03-06T08:18:17.332Z,55.90
2018-03-06T08:19:17.297Z,48.40
2018-03-06T08:20:17.261Z,53.30
2018-03-06T08:21:17.225Z,52.50
2018-03-06T08:22:17.192Z,51.40
2018-03-06T08:23:17.157Z,50.00
2018-03-06T08:24:17.119Z,51.70
2018-03-06T08:25:17.086Z,52.80
2018-03-06T08:26:17.049Z,50.70
2018-03-06T08:27:17.014Z,50.70
2018-03-06T08:28:16.978Z,52.70
2018-03-06T08:29:16.946Z,49.50
2018-03-06T08:30:16.970Z,46.70
2018-03-06T08:31:16.881Z,51.40
2018-03-06T08:32:16.846Z,49.30
2018-03-06T08:33:16.815Z,51.20
2018-03-06T08:34:16.781Z,49.30
2018-03-06T08:35:16.750Z,54.40
2018-03-06T08:36:16.719Z,49.80
2018-03-06T08:37:16.688Z,54.20
2018-03-06T08:38:16.656Z,52.70
2018-03-06T08:39:16.623Z,48.20
2018-03-06T08:40:16.590Z,48.30
2018-03-06T08:41:16.561Z,49.20
2018-03-06T08:42:16.531Z,52.50
2018-03-06T08:43:16.491Z,48.70
2018-03-06T08:44:16.461Z,50.10
2018-03-06T08:45:16.431Z,45.20
2018-03-06T08:46:16.395Z,46.50
2018-03-06T08:47:16.363Z,43.30
2018-03-06T08:48:16.327Z,49.00
2018-03-06T08:49:16.314Z,50.90
2018-03-06T08:50:16.262Z,46.30
2018-03-06T08:51:16.232Z,49.80
2018-03-06T08:52:16.196Z,44.50
2018-03-06T08:53:16.160Z,53.10
2018-03-06T08:54:16.129Z,46.20
2018-03-06T08:55:16.094Z,47.30
2018-03-06T08:56:16.061Z,48.00
2018-03-06T08:57:16.026Z,49.10
2018-03-06T08:58:16.010Z,47.40
2018-03-06T08:59:15.957Z,45.60
2018-03-06T09:00:15.927Z,54.80
2018-03-06T09:01:15.890Z,47.60
2018-03-06T09:02:15.857Z,50.40
2018-03-06T09:03:15.824Z,47.30
2018-03-06T09:04:15.793Z,48.00
2018-03-06T09:05:15.755Z,53.40
2018-03-06T09:06:15.726Z,49.20
2018-03-06T09:07:15.692Z,45.20
2018-03-06T09:08:15.671Z,45.10
2018-03-06T09:09:15.621Z,41.00
2018-03-06T09:10:15.591Z,44.20
2018-03-06T09:11:15.556Z,48.90
2018-03-06T09:12:15.550Z,45.90
2018-03-06T09:13:15.494Z,45.00
2018-03-06T09:14:15.460Z,46.00
2018-03-06T09:15:15.430Z,43.80
2018-03-06T09:16:15.399Z,45.00
2018-03-06T09:17:15.367Z,46.20
2018-03-06T09:18:15.334Z,43.60
2018-03-06T09:19:15.894Z,44.30
2018-03-06T09:20:15.272Z,41.00
2018-03-06T09:21:15.242Z,50.00
2018-03-06T09:22:15.211Z,45.50
2018-03-06T09:23:15.181Z,44.60
2018-03-06T09:24:15.150Z,44.10
2018-03-06T09:25:15.118Z,40.50
2018-03-06T09:26:15.086Z,44.40
2018-03-06T09:27:15.055Z,44.30
2018-03-06T09:28:15.023Z,44.10
2018-03-06T09:29:14.990Z,42.00
2018-03-06T09:30:14.984Z,45.70
2018-03-06T09:31:14.929Z,43.80
2018-03-06T09:32:14.895Z,42.20
2018-03-06T09:33:14.866Z,46.00
2018-03-06T09:34:14.833Z,42.00
2018-03-06T09:35:14.803Z,47.00
2018-03-06T09:36:14.763Z,42.90
2018-03-06T09:37:14.733Z,47.30
2018-03-06T09:38:14.707Z,51.20
2018-03-06T09:39:14.672Z,43.90
2018-03-06T09:40:14.639Z,42.50
2018-03-06T09:41:14.608Z,46.10
2018-03-06T09:42:14.578Z,47.60
2018-03-06T09:43:14.548Z,41.70
2018-03-06T09:44:14.524Z,44.10
2018-03-06T09:45:14.484Z,51.30
2018-03-06T09:46:14.458Z,44.50
2018-03-06T09:47:14.429Z,49.30
2018-03-06T09:48:14.398Z,44.80
2018-03-06T09:49:14.369Z,46.40
2018-03-06T09:50:14.342Z,44.30
2018-03-06T09:51:14.312Z,46.10
2018-03-06T09:52:14.288Z,46.10
2018-03-06T09:53:14.260Z,47.50
2018-03-06T09:54:14.233Z,39.70
2018-03-06T09:55:14.206Z,37.50
2018-03-06T09:56:14.179Z,34.40
2018-03-06T09:57:14.155Z,36.10
2018-03-06T09:58:14.128Z,42.10
2018-03-06T09:59:14.103Z,46.50
2018-03-06T10:00:14.081Z,40.10
2018-03-06T10:01:14.055Z,37.40
2018-03-06T10:02:14.028Z,37.50
2018-03-06T10:03:14.003Z,39.70
2018-03-06T10:04:13.978Z,37.30
2018-03-06T10:05:13.955Z,33.90
2018-03-06T10:06:13.933Z,34.50
2018-03-06T10:07:13.907Z,32.50
2018-03-06T10:08:13.880Z,28.80
2018-03-06T10:09:13.855Z,31.90
2018-03-06T10:10:13.832Z,29.30
2018-03-06T10:11:13.808Z,28.70
2018-03-06T10:12:13.786Z,27.30
2018-03-06T10:13:13.759Z,32.20
2018-03-06T10:14:13.735Z,27.50
2018-03-06T10:15:13.713Z,32.50
2018-03-06T10:16:13.686Z,32.70
2018-03-06T10:17:13.667Z,26.00
2018-03-06T10:18:13.641Z,28.00
2018-03-06T10:19:13.613Z,27.80
2018-03-06T10:20:13.591Z,28.80
2018-03-06T10:21:13.570Z,31.10
2018-03-06T10:22:13.546Z,26.90
2018-03-06T10:23:13.518Z,34.80
2018-03-06T10:24:13.491Z,31.70
2018-03-06T10:25:13.470Z,40.80
2018-03-06T10:26:13.442Z,49.10
2018-03-06T10:27:13.418Z,50.60
2018-03-06T10:28:13.391Z,48.90
2018-03-06T10:29:13.370Z,50.00
2018-03-06T10:30:13.345Z,43.90
2018-03-06T10:31:13.321Z,41.50
2018-03-06T10:32:13.293Z,47.90
2018-03-06T10:33:13.270Z,50.60
2018-03-06T10:34:13.247Z,47.90
2018-03-06T10:35:13.221Z,47.70
2018-03-06T10:36:13.197Z,38.30
2018-03-06T10:37:13.174Z,38.90
2018-03-06T10:38:13.153Z,42.60
2018-03-06T10:39:13.132Z,34.80
2018-03-06T10:40:13.105Z,34.40
2018-03-06T10:41:13.082Z,37.80
2018-03-06T10:42:13.061Z,38.60
2018-03-06T10:43:13.037Z,37.20
2018-03-06T10:44:13.014Z,41.60
2018-03-06T10:45:12.993Z,41.20
2018-03-06T10:46:12.972Z,34.80
2018-03-06T10:47:12.949Z,32.90
2018-03-06T10:48:12.926Z,36.10
2018-03-06T10:49:12.903Z,31.20
2018-03-06T10:50:12.885Z,32.70
2018-03-06T10:51:12.871Z,32.80
2018-03-06T10:52:12.843Z,31.70
2018-03-06T10:53:12.822Z,33.40
2018-03-06T10:54:12.799Z,30.10
2018-03-06T10:55:12.781Z,32.10
2018-03-06T10:56:12.757Z,28.40
2018-03-06T10:57:12.736Z,28.40
2018-03-06T10:58:12.716Z,28.10
2018-03-06T10:59:12.694Z,28.60
2018-03-06T11:00:12.675Z,25.70
2018-03-06T11:01:12.662Z,31.00
2018-03-06T11:02:12.682Z,28.40
2018-03-06T11:03:12.614Z,24.60
2018-03-06T11:04:12.593Z,22.20
2018-03-06T11:05:12.573Z,20.70
2018-03-06T11:06:12.549Z,22.10
2018-03-06T11:07:12.531Z,24.40
2018-03-06T11:08:12.556Z,23.10
2018-03-06T11:09:12.489Z,19.90
2018-03-06T11:10:12.471Z,20.20
2018-03-06T11:11:12.467Z,21.60
2018-03-06T11:12:12.432Z,18.50
2018-03-06T11:13:12.411Z,20.60
2018-03-06T11:14:12.394Z,24.40
2018-03-06T11:15:12.375Z,22.60
2018-03-06T11:16:12.353Z,25.20
2018-03-06T11:17:12.336Z,20.70
2018-03-06T11:18:12.316Z,20.50
2018-03-06T11:19:12.296Z,21.90
2018-03-06T11:20:12.278Z,23.50
2018-03-06T11:21:12.264Z,20.90
2018-03-06T11:22:12.239Z,22.20
2018-03-06T11:23:12.224Z,23.60
2018-03-06T11:24:12.202Z,21.50
2018-03-06T11:25:12.186Z,20.40
2018-03-06T11:26:12.168Z,24.80
2018-03-06T11:27:12.146Z,19.80
2018-03-06T11:28:12.132Z,20.80
2018-03-06T11:29:12.109Z,16.00
2018-03-06T11:30:12.093Z,25.10
2018-03-06T11:31:12.074Z,19.30
2018-03-06T11:32:12.054Z,20.40
2018-03-06T11:33:12.032Z,21.80
2018-03-06T11:34:12.017Z,22.10
2018-03-06T11:35:11.994Z,25.20
2018-03-06T11:36:11.976Z,22.70
2018-03-06T11:37:11.953Z,22.50
2018-03-06T11:38:11.939Z,24.70
2018-03-06T11:39:11.912Z,27.20
2018-03-06T11:40:11.905Z,25.70
2018-03-06T11:41:11.922Z,30.10
2018-03-06T11:42:11.855Z,24.40
2018-03-06T11:43:11.845Z,30.60
2018-03-06T11:44:11.806Z,23.90
2018-03-06T11:45:11.790Z,24.90
2018-03-06T11:46:11.770Z,24.90
2018-03-06T11:47:11.748Z,24.70
2018-03-06T11:48:11.722Z,25.50
2018-03-06T11:49:11.706Z,23.30
2018-03-06T11:50:11.684Z,29.90
2018-03-06T11:51:11.662Z,27.40
2018-03-06T11:52:11.636Z,29.10
2018-03-06T11:53:11.617Z,28.20
2018-03-06T11:54:11.594Z,22.80
2018-03-06T11:55:11.571Z,29.70
2018-03-06T11:56:11.546Z,31.60
2018-03-06T11:57:11.527Z,32.00
2018-03-06T11:58:11.503Z,34.60
2018-03-06T11:59:11.481Z,44.40
2018-03-06T12:00:11.458Z,40.20
2018-03-06T12:01:11.432Z,41.30
2018-03-06T12:02:11.409Z,34.50
2018-03-06T12:03:11.387Z,33.80
2018-03-06T12:04:11.361Z,28.90
2018-03-06T12:05:11.337Z,33.60
2018-03-06T12:06:11.314Z,30.90
2018-03-06T12:07:11.344Z,32.00
2018-03-06T12:08:11.265Z,34.00
2018-03-06T12:09:11.241Z,23.60
2018-03-06T12:10:11.217Z,27.70
2018-03-06T12:11:11.192Z,24.70
2018-03-06T12:12:11.165Z,26.40
2018-03-06T12:13:11.141Z,33.80
2018-03-06T12:14:11.114Z,27.10
2018-03-06T12:15:11.091Z,39.80
2018-03-06T12:16:11.063Z,36.30
2018-03-06T12:17:11.039Z,30.00
2018-03-06T12:18:11.013Z,28.90
2018-03-06T12:19:10.988Z,23.30
2018-03-06T12:20:10.960Z,25.70
2018-03-06T12:21:10.936Z,25.70
2018-03-06T12:22:10.909Z,29.40
2018-03-06T12:23:10.884Z,26.00
2018-03-06T12:24:10.862Z,30.60
2018-03-06T12:25:10.832Z,28.90
2018-03-06T12:26:10.807Z,29.30
2018-03-06T12:27:10.782Z,33.90
2018-03-06T12:28:10.753Z,28.40
2018-03-06T12:29:10.730Z,31.30
2018-03-06T12:30:10.704Z,33.40
2018-03-06T12:31:10.676Z,26.90
2018-03-06T12:32:10.651Z,32.20
2018-03-06T12:33:10.626Z,27.00
2018-03-06T12:34:10.596Z,30.20
2018-03-06T12:35:10.573Z,33.30
2018-03-06T12:36:10.543Z,32.40
2018-03-06T12:37:10.517Z,28.70
2018-03-06T12:38:10.489Z,30.90
2018-03-06T12:39:10.464Z,28.60
2018-03-06T12:40:10.436Z,32.50
2018-03-06T12:41:10.406Z,32.20
2018-03-06T12:42:10.383Z,29.30
2018-03-06T12:43:10.354Z,31.10
2018-03-06T12:44:10.323Z,25.90
2018-03-06T12:45:10.296Z,29.30
2018-03-06T12:46:10.267Z,29.90
2018-03-06T12:47:10.238Z,25.60
2018-03-06T12:48:10.209Z,27.70
2018-03-06T12:49:10.183Z,26.70
2018-03-06T12:50:10.156Z,28.60
2018-03-06T12:51:10.397Z,26.50
2018-03-06T12:52:10.099Z,24.60